CJQ4 weather

Maple Creek Airport
Maple Creek, Saskatchewan, Canada

Public forecast

Using degrees Celsius for public forecast. Weather courtesy of forecast.io.

METAR (pilot weather report)

Closest report is Medicine Hat Airport, 48.7 nm (90.2 km) W. Retrieved 2019/04/25 07:00 UTC (49 minutes ago):

CYXH 250700Z AUTO 31004KT 9SM OVC085 05/M05 A3022 RMK SLP245

TAF (pilot weather forecast)

Closest forecast is Medicine Hat Airport, 48.7 nm (90.2 km) W. Retrieved 2019/04/25 06:42 UTC (1 hour ago):

TAF CYXH 250538Z 2506/2518 34008KT P6SM SCT110 TEMPO 2506/2512 BKN100 FM251200 28008KT P6SM FEW120 RMK FCST BASED ON AUTO OBS. NXT FCST BY 251200Z